ADDS METAR Data INFO
IDs: Format: Raw Decoded Include TAF

Data at: 1516 UTC 23 Oct 2017

KAMG 231453Z AUTO 16010G19KT 6SM HZ BKN015 OVC029 26/22 A2998 RMK AO2 RAE1357 SLP148 P0000 60000 T02560222 58006
KAMG 231353Z AUTO 16008G17KT 5SM -RA BR BKN015 OVC044 24/22 A2999 RMK AO2 RAB40 SLP153 P0000 T02440222
KAMG 231253Z AUTO 16011G18KT 6SM HZ BKN014 OVC022 25/22 A2999 RMK AO2 SLP153 T02500222
KAMG 231153Z AUTO 15012KT 6SM BR BKN013 BKN025 24/22 A3000 RMK AO2 SLP156 T02440222 10244 20228 58004
KAMG 231053Z AUTO 15010KT 7SM BKN012 24/22 A3001 RMK AO2 SLP159 T02440222
KAMG 231039Z AUTO 15009KT 7SM BKN012 BKN050 24/22 A3001 RMK AO2 T02440222
KAMG 230953Z AUTO 15008KT 7SM FEW032 BKN048 24/22 A3001 RMK AO2 SLP160 T02440222
KAMG 230932Z AUTO 14007KT 7SM SCT030 BKN047 24/22 A3001 RMK AO2 T02390222
KAMG 230853Z AUTO 13005KT 7SM BKN028 OVC075 24/22 A3001 RMK AO2 SLP160 T02390222 58020
KAMG 230833Z AUTO 13005KT 7SM FEW011 BKN028 OVC065 24/22 A3002 RMK AO2 T02390222
KAMG 230753Z AUTO 14004KT 7SM SCT013 BKN060 OVC110 24/22 A3004 RMK AO2 SLP170 T02390222
KAMG 230653Z AUTO 14006KT 8SM BKN055 BKN065 OVC100 24/22 A3006 RMK AO2 SLP177 T02390222
KAMG 230635Z AUTO 11004KT 8SM FEW026 BKN060 OVC110 23/22 A3006 RMK AO2 T02330217
KAMG 230616Z AUTO 13003KT 8SM SCT007 BKN024 OVC110 23/22 A3007 RMK AO2 T02330217
KAMG 230553Z AUTO 11004KT 8SM BKN009 OVC022 23/22 A3007 RMK AO2 SLP180 T02330217 10244 20233 58016
KAMG 230522Z AUTO 12007KT 9SM BKN009 BKN013 OVC026 24/22 A3008 RMK AO2 T02390217
KAMG 230453Z AUTO 14006KT 9SM BKN011 OVC014 24/22 A3010 RMK AO2 CIG 008V012 SLP189 T02390217 403060194
KAMG 230353Z AUTO 11005KT 10SM OVC012 24/21 A3011 RMK AO2 SLP193 T02390211
KAMG 230307Z AUTO 11005KT 10SM BKN014 OVC019 24/21 A3012 RMK AO2 T02390211
KAMG 230253Z AUTO 11005KT 10SM OVC018 24/21 A3012 RMK AO2 SLP196 T02390206 51008
KAMG 230153Z AUTO 11006KT 10SM FEW020 BKN026 OVC100 23/21 A3012 RMK AO2 SLP196 T02330206
KAMG 230053Z AUTO 12006KT 10SM BKN095 24/21 A3011 RMK AO2 SLP193 T02390206
KAMG 222353Z AUTO 11007KT 10SM BKN075 OVC090 24/21 A3010 RMK AO2 SLP189 T02440206 10306 20244 58003
KAMG 222253Z AUTO VRB06KT 10SM BKN090 25/21 A3011 RMK AO2 SLP193 T02500211
KAMG 222153Z AUTO 10005KT 10SM FEW034 SCT075 27/21 A3010 RMK AO2 SLP190 T02720211
KAMG 222053Z AUTO VRB06KT 10SM FEW039 SCT050 29/21 A3010 RMK AO2 SLP191 T02940211 56019
KAMG 221953Z AUTO 08009KT 10SM FEW038 FEW070 29/20 A3011 RMK AO2 SLP194 T02940200
KAMG 221853Z AUTO 11006KT 10SM FEW036 FEW050 BKN065 28/20 A3013 RMK AO2 SLP201 T02830200
KAMG 221753Z AUTO 11008G15KT 10SM SCT035 28/20 A3016 RMK AO2 SLP209 T02830200 10289 20200 58022
KAMG 221703Z AUTO 09006KT 10SM SCT025 SCT037 BKN049 27/21 A3019 RMK AO2 T02670206
KAMG 221653Z AUTO 07008KT 10SM BKN024 BKN033 BKN040 28/21 A3019 RMK AO2 SLP218 T02780211
KAMG 221646Z AUTO 09009KT 060V120 10SM BKN024 BKN031 OVC049 27/21 A3019 RMK AO2 T02720211
KAMG 221606Z AUTO 12008G15KT 10SM FEW021 SCT028 SCT036 27/21 A3021 RMK AO2 T02720211
KAMG 221553Z AUTO 11009G16KT 10SM BKN021 BKN029 27/21 A3021 RMK AO2 SLP227 T02720211
KAMG 221533Z AUTO 08008KT 10SM BKN019 27/21 A3021 RMK AO2 T02670211
KAMG 221523Z AUTO 10006KT 10SM SCT017 27/21 A3021 RMK AO2 T02720211
KAMG 221512Z AUTO 08007G14KT 10SM SCT017 BKN024 25/21 A3021 RMK AO2 T02500206
KAMG 221453Z AUTO 10009KT 10SM FEW017 SCT024 26/21 A3022 RMK AO2 SLP232 T02560206 50007
KAMG 221353Z AUTO VRB04KT 10SM CLR 23/20 A3024 RMK AO2 SLP237 T02280200
KAMG 221253Z AUTO VRB03KT 10SM CLR 22/19 A3023 RMK AO2 SLP233 T02170194
KAMG 221153Z AUTO 00000KT 8SM SCT060 20/19 A3020 RMK AO2 SLP226 T02000189 10206 20194 53007
KAMG 221053Z AUTO 00000KT 10SM SCT055 21/19 A3019 RMK AO2 SLP221 T02060189
KAMG 220953Z AUTO 00000KT 10SM OVC055 21/19 A3019 RMK AO2 SLP220 T02060189
KAMG 220853Z AUTO 06003KT 9SM OVC060 20/19 A3018 RMK AO2 SLP218 T02000189 56011
KAMG 220753Z AUTO 06003KT 8SM FEW030 FEW065 19/18 A3019 RMK AO2 SLP219 T01940183
KAMG 220653Z AUTO VRB03KT 8SM CLR 20/18 A3020 RMK AO2 SLP225 T02000183
KAMG 220553Z AUTO 07003KT 9SM CLR 20/18 A3022 RMK AO2 SLP229 T02000183 10228 20200 56012
KAMG 220453Z AUTO 07003KT 10SM CLR 21/19 A3023 RMK AO2 SLP232 T02060189 402830161
KAMG 220353Z AUTO 06003KT 10SM CLR 21/19 A3023 RMK AO2 SLP235 T02060189